Time;durP1;ratioP1;P1;durP2;ratioP2;P2;SDS_P1;SDS_P2;PMS_P1;PMS_P2;Temp;Humidity;BMP_temperature;BMP_pressure;BME280_temperature;BME280_humidity;BME280_pressure;Samples;Min_cycle;Max_cycle;Signal;HPM_P1;HPM_P2
2021/12/21 00:01:52;;;;;;;;;;;;;;;-10.10;56.45;98118.59;5015112;28;20341;-79
2021/12/21 00:04:18;;;;;;;;;;;;;;;-10.15;58.35;98116.66;5013825;28;20021;-79
2021/12/21 00:06:44;;;;;;;;;;;;;;;-10.20;57.57;98118.06;4998018;28;20241;-82
2021/12/21 00:09:09;;;;;;;;;;;;;;;-10.37;58.31;98120.56;5013860;28;20273;-81
2021/12/21 00:11:35;;;;;;;;;;;;;;;-10.10;57.79;98123.63;5015292;28;19913;-80
2021/12/21 00:19:43;;;;;;;;;;;;;;;-10.56;59.02;98125.41;5013949;28;19935;-78
2021/12/21 00:23:16;;;;;;;;;;;;;;;-10.22;58.26;98135.50;5015267;28;19929;-80
2021/12/21 00:24:57;;;;;;;;;;;;;;;-10.16;57.97;98132.47;5010665;28;19947;-78
2021/12/21 00:27:23;;;;;;;;;;;;;;;-10.51;59.04;98141.53;4997066;28;19913;-79
2021/12/21 00:29:48;;;;;;;;;;;;;;;-10.63;57.90;98133.34;5013535;28;19960;-78
2021/12/21 00:32:14;;;;;;;;;;;;;;;-10.80;58.83;98127.44;4996923;28;19964;-78
2021/12/21 00:34:40;;;;;;;;;;;;;;;-10.82;60.69;98129.84;4997242;28;20343;-79
2021/12/21 00:37:05;;;;;;;;;;;;;;;-10.64;59.34;98141.66;5014306;28;19936;-79
2021/12/21 00:39:31;;;;;;;;;;;;;;;-10.71;58.77;98135.47;5013002;28;19921;-78
2021/12/21 00:41:56;;;;;;;;;;;;;;;-10.72;58.71;98138.72;5013386;28;19917;-79
2021/12/21 00:44:22;;;;;;;;;;;;;;;-10.84;59.38;98138.94;5012852;28;20051;-80
2021/12/21 00:46:47;;;;;;;;;;;;;;;-10.67;59.57;98138.97;5014149;28;19948;-81
2021/12/21 00:49:14;;;;;;;;;;;;;;;-10.51;59.07;98137.38;5013960;28;19925;-80
2021/12/21 00:51:43;;;;;;;;;;;;;;;-10.70;58.64;98148.84;5014278;28;20016;-79
2021/12/21 00:54:09;;;;;;;;;;;;;;;-10.79;60.43;98155.06;5014198;28;20419;-78
2021/12/21 00:56:34;;;;;;;;;;;;;;;-10.58;60.31;98152.00;5013085;28;19914;-79
2021/12/21 00:59:01;;;;;;;;;;;;;;;-10.76;59.17;98145.25;5012880;28;19917;-80
2021/12/21 01:01:26;;;;;;;;;;;;;;;-10.81;58.73;98146.63;5014251;28;19944;-80
2021/12/21 01:03:54;;;;;;;;;;;;;;;-10.62;59.20;98147.63;5013017;28;20369;-79
2021/12/21 01:11:25;;;;;;;;;;;;;;;-10.84;59.39;98150.59;5012856;28;20523;-79
2021/12/21 01:14:10;;;;;;;;;;;;;;;-11.03;59.98;98161.25;5012574;28;20023;-80
2021/12/21 01:16:50;;;;;;;;;;;;;;;-10.99;60.83;98165.66;4996268;28;19917;-78
2021/12/21 01:19:24;;;;;;;;;;;;;;;-10.80;60.89;98170.03;5013308;28;19917;-78
2021/12/21 01:22:03;;;;;;;;;;;;;;;-10.96;58.62;98167.44;5013955;28;19971;-78
2021/12/21 01:24:48;;;;;;;;;;;;;;;-10.43;59.35;98170.38;5012455;28;20354;-78
2021/12/21 01:27:24;;;;;;;;;;;;;;;-10.40;57.09;98170.56;5010556;28;19924;-78
2021/12/21 01:35:42;;;;;;;;;;;;;;;-10.86;59.37;98188.06;5003177;28;20304;-78
2021/12/21 01:40:48;;;;;;;;;;;;;;;-10.44;58.33;98196.22;5013181;28;19917;-78
2021/12/21 01:51:11;;;;;;;;;;;;;;;-10.95;58.35;98200.06;5011855;28;19917;-78
2021/12/21 01:53:37;;;;;;;;;;;;;;;-10.62;56.79;98187.72;5011845;28;20023;-78
2021/12/21 01:56:02;;;;;;;;;;;;;;;-10.31;56.82;98198.63;5013081;28;19921;-78
2021/12/21 01:58:28;;;;;;;;;;;;;;;-10.73;55.70;98198.78;4995487;28;19913;-79
2021/12/21 02:00:54;;;;;;;;;;;;;;;-11.00;55.28;98198.97;5012198;28;19921;-79
2021/12/21 02:03:19;;;;;;;;;;;;;;;-10.53;55.56;98189.06;5011591;28;19924;-79
2021/12/21 02:05:45;;;;;;;;;;;;;;;-10.77;55.21;98197.75;5011458;28;19917;-78
2021/12/21 02:08:10;;;;;;;;;;;;;;;-10.83;57.29;98198.28;5011693;28;19948;-81
2021/12/21 02:10:36;;;;;;;;;;;;;;;-10.93;55.07;98206.06;5012704;28;19917;-78
2021/12/21 02:13:01;;;;;;;;;;;;;;;-11.35;56.35;98225.38;5011563;28;20337;-80
2021/12/21 02:15:27;;;;;;;;;;;;;;;-10.82;57.46;98220.03;5011341;28;19923;-78
2021/12/21 02:23:08;;;;;;;;;;;;;;;-11.39;57.22;98233.47;5012902;28;19928;-80
2021/12/21 02:30:45;;;;;;;;;;;;;;;-11.06;55.35;98248.72;5011482;28;20352;-78
2021/12/21 02:33:12;;;;;;;;;;;;;;;-11.13;54.51;98239.09;5011767;28;19932;-78
2021/12/21 02:35:38;;;;;;;;;;;;;;;-10.87;55.04;98230.56;5012843;28;19959;-79
2021/12/21 02:38:03;;;;;;;;;;;;;;;-11.18;55.83;98242.97;4995009;28;21319;-79
2021/12/21 02:40:29;;;;;;;;;;;;;;;-11.32;55.86;98249.69;4995184;28;19991;-78
2021/12/21 02:42:54;;;;;;;;;;;;;;;-11.21;55.58;98250.34;4995188;28;19917;-78
2021/12/21 02:45:20;;;;;;;;;;;;;;;-11.61;55.75;98245.50;5012676;28;20372;-79
2021/12/21 02:47:45;;;;;;;;;;;;;;;-11.40;56.12;98256.78;5012441;28;19918;-78
2021/12/21 02:50:11;;;;;;;;;;;;;;;-11.51;54.94;98262.78;4994975;28;19921;-78
2021/12/21 02:52:36;;;;;;;;;;;;;;;-11.31;55.70;98258.97;5012279;28;19917;-78
2021/12/21 02:55:03;;;;;;;;;;;;;;;-11.71;54.78;98273.25;5012360;28;19937;-79
2021/12/21 02:57:29;;;;;;;;;;;;;;;-11.61;56.27;98270.50;4994897;28;19975;-79
2021/12/21 02:59:55;;;;;;;;;;;;;;;-11.35;56.44;98272.94;4994974;28;20327;-79
2021/12/21 03:02:20;;;;;;;;;;;;;;;-11.21;54.17;98270.38;5011172;28;19937;-78
2021/12/21 03:04:46;;;;;;;;;;;;;;;-11.66;55.46;98269.38;5011167;28;19917;-81
2021/12/21 03:07:49;;;;;;;;;;;;;;;-11.24;55.40;98277.69;5027421;28;19917;-81
2021/12/21 03:10:02;;;;;;;;;;;;;;;-11.30;53.25;98279.06;5011021;28;19971;-78
2021/12/21 03:15:14;;;;;;;;;;;;;;;-11.88;56.01;98275.63;5005129;28;19963;-79
2021/12/21 03:17:39;;;;;;;;;;;;;;;-11.37;54.70;98274.47;4998955;28;20300;-79
2021/12/21 03:20:05;;;;;;;;;;;;;;;-11.64;55.99;98271.19;5015073;28;19941;-79
2021/12/21 03:22:30;;;;;;;;;;;;;;;-11.74;55.81;98273.06;5016231;28;19913;-78
2021/12/21 03:24:56;;;;;;;;;;;;;;;-11.54;57.30;98278.50;5015477;28;19921;-78
2021/12/21 03:27:22;;;;;;;;;;;;;;;-11.05;56.71;98275.47;4998635;28;19913;-79
2021/12/21 03:29:47;;;;;;;;;;;;;;;-11.05;54.45;98276.31;5014907;28;19924;-79
2021/12/21 03:32:13;;;;;;;;;;;;;;;-11.84;53.80;98276.66;5016217;28;19913;-78
2021/12/21 03:34:39;;;;;;;;;;;;;;;-11.96;55.10;98271.78;5014908;28;19929;-82
2021/12/21 03:37:10;;;;;;;;;;;;;;;-11.68;54.90;98280.91;5016175;28;19917;-80
2021/12/21 03:39:36;;;;;;;;;;;;;;;-11.58;56.65;98275.72;5014794;28;19971;-79
2021/12/21 03:42:01;;;;;;;;;;;;;;;-12.15;57.32;98269.78;5015686;28;19917;-78
2021/12/21 03:44:27;;;;;;;;;;;;;;;-12.03;57.67;98282.19;5015751;28;19927;-79
2021/12/21 03:46:55;;;;;;;;;;;;;;;-11.43;56.96;98276.59;5015537;28;19913;-79
2021/12/21 03:52:01;;;;;;;;;;;;;;;-11.31;54.75;98271.47;5014804;28;19917;-79
2021/12/21 03:54:26;;;;;;;;;;;;;;;-11.71;55.87;98273.25;4997632;28;19968;-80
2021/12/21 03:56:52;;;;;;;;;;;;;;;-12.11;56.45;98270.84;5015408;28;19917;-79
2021/12/21 03:59:18;;;;;;;;;;;;;;;-12.40;57.92;98284.91;4998014;28;19914;-82
2021/12/21 04:01:43;;;;;;;;;;;;;;;-12.83;59.88;98291.28;5015737;28;19956;-77
2021/12/21 04:04:09;;;;;;;;;;;;;;;-12.43;59.63;98282.22;4998090;28;19969;-78
2021/12/21 04:06:35;;;;;;;;;;;;;;;-11.80;59.26;98281.06;5014195;28;20384;-80
2021/12/21 04:09:01;;;;;;;;;;;;;;;-11.56;57.56;98292.53;5015639;28;19913;-79
2021/12/21 04:11:26;;;;;;;;;;;;;;;-11.31;56.92;98287.34;5015598;28;19960;-80
2021/12/21 04:13:52;;;;;;;;;;;;;;;-11.68;56.04;98294.31;5015638;28;20011;-79
2021/12/21 04:16:17;;;;;;;;;;;;;;;-12.25;57.16;98295.00;5013708;28;20320;-83
2021/12/21 04:18:43;;;;;;;;;;;;;;;-12.64;58.06;98298.34;5015756;28;20347;-81
2021/12/21 04:21:09;;;;;;;;;;;;;;;-12.56;59.31;98300.53;5014203;28;19921;-79
2021/12/21 04:23:34;;;;;;;;;;;;;;;-12.71;59.94;98308.72;5014986;28;19924;-81
2021/12/21 04:26:00;;;;;;;;;;;;;;;-12.64;60.14;98304.22;5014413;28;20412;-79
2021/12/21 04:28:25;;;;;;;;;;;;;;;-12.40;58.92;98314.88;4998053;28;20008;-78
2021/12/21 04:30:51;;;;;;;;;;;;;;;-12.08;58.96;98296.91;5013941;28;19956;-78
2021/12/21 04:33:16;;;;;;;;;;;;;;;-12.44;57.72;98307.09;5015350;28;20236;-79
2021/12/21 04:35:42;;;;;;;;;;;;;;;-12.70;59.46;98312.94;5013166;28;19917;-79
2021/12/21 04:38:21;;;;;;;;;;;;;;;-12.59;60.05;98317.00;4996944;28;19974;-78
2021/12/21 04:40:55;;;;;;;;;;;;;;;-12.32;59.21;98330.38;5013184;28;20008;-78
2021/12/21 04:43:20;;;;;;;;;;;;;;;-11.94;56.61;98321.91;5012856;28;19917;-78
2021/12/21 04:45:46;;;;;;;;;;;;;;;-12.38;58.19;98324.97;5013553;28;20304;-78
2021/12/21 04:48:11;;;;;;;;;;;;;;;-12.62;58.45;98334.28;5013495;28;20343;-79
2021/12/21 04:50:38;;;;;;;;;;;;;;;-12.49;58.63;98334.28;5014646;28;19913;-77
2021/12/21 04:53:03;;;;;;;;;;;;;;;-12.57;59.20;98333.78;5014258;28;19932;-79
2021/12/21 04:55:28;;;;;;;;;;;;;;;-12.43;59.03;98349.66;5013206;28;19917;-79
2021/12/21 04:57:54;;;;;;;;;;;;;;;-11.96;58.90;98345.91;5014571;28;19924;-78
2021/12/21 05:00:20;;;;;;;;;;;;;;;-12.32;55.80;98346.22;5014565;28;19921;-79
2021/12/21 05:02:45;;;;;;;;;;;;;;;-12.46;57.74;98354.47;5013234;28;19955;-78
2021/12/21 05:05:11;;;;;;;;;;;;;;;-12.33;58.60;98354.47;5013383;28;20276;-78
2021/12/21 05:07:39;;;;;;;;;;;;;;;-12.50;57.39;98352.56;4996637;28;20399;-78
2021/12/21 05:10:06;;;;;;;;;;;;;;;-12.70;58.43;98350.38;5014194;28;19914;-83
2021/12/21 05:12:32;;;;;;;;;;;;;;;-12.71;58.34;98346.16;5013058;28;20347;-79
2021/12/21 05:14:57;;;;;;;;;;;;;;;-12.71;58.29;98358.66;5013277;28;19917;-78
2021/12/21 05:17:23;;;;;;;;;;;;;;;-12.80;58.63;98353.91;5014307;28;19963;-78
2021/12/21 05:19:48;;;;;;;;;;;;;;;-12.91;57.97;98359.84;4996849;28;19964;-78
2021/12/21 05:22:15;;;;;;;;;;;;;;;-12.72;59.03;98359.44;5014466;28;19999;-79
2021/12/21 05:24:41;;;;;;;;;;;;;;;-12.30;58.27;98364.69;5014053;28;19921;-79
2021/12/21 05:27:07;;;;;;;;;;;;;;;-12.20;57.59;98371.13;4996565;28;19917;-80
2021/12/21 05:29:32;;;;;;;;;;;;;;;-12.56;56.77;98367.13;5014135;28;20016;-78
2021/12/21 05:32:00;;;;;;;;;;;;;;;-12.98;57.34;98380.16;5014101;28;19963;-80
2021/12/21 05:34:26;;;;;;;;;;;;;;;-13.00;57.59;98379.22;5013105;28;20347;-79
2021/12/21 05:36:55;;;;;;;;;;;;;;;-12.87;57.10;98371.78;5011762;28;20355;-78
2021/12/21 05:39:24;;;;;;;;;;;;;;;-12.94;56.15;98382.97;5013636;28;19921;-79
2021/12/21 05:41:51;;;;;;;;;;;;;;;-12.93;57.16;98384.69;5012756;28;19917;-79
2021/12/21 05:44:21;;;;;;;;;;;;;;;-12.59;57.47;98376.94;5012824;28;19963;-81
2021/12/21 05:46:47;;;;;;;;;;;;;;;-12.89;55.43;98394.13;5012944;28;20295;-80
2021/12/21 05:49:12;;;;;;;;;;;;;;;-12.68;54.89;98393.81;5013862;28;19939;-80
2021/12/21 05:51:38;;;;;;;;;;;;;;;-13.01;55.92;98395.81;5013914;28;19917;-80
2021/12/21 05:54:03;;;;;;;;;;;;;;;-12.94;55.77;98395.44;5012644;28;19920;-79
2021/12/21 05:56:29;;;;;;;;;;;;;;;-13.23;56.44;98387.69;4996458;28;20394;-80
2021/12/21 05:58:54;;;;;;;;;;;;;;;-13.11;56.75;98390.97;5012647;28;20376;-79
2021/12/21 06:01:20;;;;;;;;;;;;;;;-13.11;55.85;98400.94;5013734;28;19968;-79
2021/12/21 06:03:45;;;;;;;;;;;;;;;-13.38;56.80;98405.81;5012755;28;19924;-79
2021/12/21 06:06:14;;;;;;;;;;;;;;;-13.01;56.84;98394.94;5013847;28;19952;-80
2021/12/21 06:08:40;;;;;;;;;;;;;;;-12.76;56.87;98388.31;5012751;28;19917;-80
2021/12/21 06:11:07;;;;;;;;;;;;;;;-12.95;55.22;98398.72;5013790;28;19940;-79
2021/12/21 06:27:15;;;;;;;;;;;;;;;-12.88;55.04;98418.31;5012350;28;19953;-80
2021/12/21 06:29:41;;;;;;;;;;;;;;;-12.75;55.35;98416.66;5012566;28;19944;-78
2021/12/21 06:32:07;;;;;;;;;;;;;;;-13.00;54.74;98420.00;5013861;28;19995;-79
2021/12/21 06:34:33;;;;;;;;;;;;;;;-13.22;56.35;98422.72;5013989;28;20016;-84
2021/12/21 06:36:59;;;;;;;;;;;;;;;-13.17;56.73;98415.50;4996691;28;19944;-80
2021/12/21 06:39:26;;;;;;;;;;;;;;;-13.08;55.98;98423.63;4995946;28;19921;-79
2021/12/21 06:41:52;;;;;;;;;;;;;;;-13.25;56.99;98429.13;5013611;28;20431;-80
2021/12/21 06:44:17;;;;;;;;;;;;;;;-13.45;58.04;98440.22;4996019;28;19925;-79
2021/12/21 06:47:03;;;;;;;;;;;;;;;-13.32;57.56;98429.47;4996601;28;19964;-81
2021/12/21 06:52:13;;;;;;;;;;;;;;;-13.47;57.14;98455.06;5013574;28;19940;-79
2021/12/21 06:54:39;;;;;;;;;;;;;;;-13.22;58.67;98449.31;5016445;28;19917;-79
2021/12/21 06:57:04;;;;;;;;;;;;;;;-13.50;57.82;98464.00;5016109;28;20016;-79
2021/12/21 06:59:30;;;;;;;;;;;;;;;-13.37;57.49;98454.97;5000367;28;19920;-79
2021/12/21 07:01:56;;;;;;;;;;;;;;;-13.38;57.93;98453.22;5015931;28;19921;-79
2021/12/21 07:04:22;;;;;;;;;;;;;;;-13.37;57.93;98449.97;5000178;28;19963;-80
2021/12/21 07:06:47;;;;;;;;;;;;;;;-13.57;57.94;98457.69;4999650;28;19976;-79
2021/12/21 07:09:27;;;;;;;;;;;;;;;-13.51;58.23;98460.63;5017591;28;19999;-82
2021/12/21 07:12:13;;;;;;;;;;;;;;;-13.61;58.42;98455.75;5016359;28;20400;-78
2021/12/21 07:20:07;;;;;;;;;;;;;;;-13.65;58.57;98468.75;5013905;28;20347;-81
2021/12/21 07:22:32;;;;;;;;;;;;;;;-13.61;59.31;98460.72;5017277;28;19913;-80
2021/12/21 07:24:58;;;;;;;;;;;;;;;-13.38;58.57;98465.69;5016414;28;19925;-79
2021/12/21 07:27:23;;;;;;;;;;;;;;;-13.11;57.87;98460.84;5016493;28;19913;-79
2021/12/21 07:29:49;;;;;;;;;;;;;;;-13.42;57.34;98467.88;5015299;28;19929;-78
2021/12/21 07:32:15;;;;;;;;;;;;;;;-13.47;57.97;98470.03;5015622;28;19912;-81
2021/12/21 07:34:41;;;;;;;;;;;;;;;-13.41;58.52;98479.59;5015332;28;19924;-79
2021/12/21 07:37:09;;;;;;;;;;;;;;;-13.37;57.37;98469.94;5015589;28;20439;-80
2021/12/21 07:39:35;;;;;;;;;;;;;;;-13.32;57.47;98479.38;4998871;28;20400;-79
2021/12/21 07:42:00;;;;;;;;;;;;;;;-12.97;56.06;98476.75;4998051;28;19956;-79
2021/12/21 07:44:27;;;;;;;;;;;;;;;-13.27;55.61;98475.56;4998540;28;19921;-79
2021/12/21 07:46:52;;;;;;;;;;;;;;;-13.71;55.94;98489.13;4998062;28;19917;-80
2021/12/21 07:49:18;;;;;;;;;;;;;;;-13.50;56.43;98477.31;5014793;28;19944;-80
2021/12/21 07:51:43;;;;;;;;;;;;;;;-13.57;56.69;98487.63;4998893;28;19921;-79
2021/12/21 07:54:09;;;;;;;;;;;;;;;-13.25;56.88;98476.53;4998354;28;20442;-79
2021/12/21 07:56:35;;;;;;;;;;;;;;;-13.21;56.15;98483.44;4998527;28;19913;-79
2021/12/21 07:59:01;;;;;;;;;;;;;;;-13.26;55.64;98489.75;5013970;28;20288;-80
2021/12/21 08:01:26;;;;;;;;;;;;;;;-13.18;55.93;98488.66;5017049;28;19917;-83
2021/12/21 08:03:53;;;;;;;;;;;;;;;-13.45;55.46;98495.97;5014668;28;19960;-79
2021/12/21 08:06:18;;;;;;;;;;;;;;;-13.18;54.57;98486.16;5015932;28;20020;-79
2021/12/21 08:08:45;;;;;;;;;;;;;;;-12.86;55.93;98486.72;4998006;28;20004;-79
2021/12/21 08:11:28;;;;;;;;;;;;;;;-13.09;54.61;98491.78;5014184;28;19913;-79
2021/12/21 08:13:54;;;;;;;;;;;;;;;-12.96;55.51;98494.34;5012064;28;19917;-81
2021/12/21 08:16:21;;;;;;;;;;;;;;;-13.29;55.21;98487.06;5014756;28;19924;-80
2021/12/21 08:18:46;;;;;;;;;;;;;;;-13.38;54.59;98492.25;5015493;28;20388;-78
2021/12/21 08:21:16;;;;;;;;;;;;;;;-13.32;54.99;98484.38;5014325;28;19913;-80
2021/12/21 08:23:41;;;;;;;;;;;;;;;-13.21;54.52;98483.44;4997865;28;19929;-79
2021/12/21 08:26:07;;;;;;;;;;;;;;;-13.28;54.96;98484.69;4997529;28;19913;-78
2021/12/21 08:28:33;;;;;;;;;;;;;;;-12.94;54.56;98497.81;5015822;28;19923;-80
2021/12/21 08:30:58;;;;;;;;;;;;;;;-12.96;54.87;98503.47;5015331;28;19918;-78
2021/12/21 08:33:24;;;;;;;;;;;;;;;-13.20;53.96;98496.00;5014217;28;19968;-79
2021/12/21 08:35:49;;;;;;;;;;;;;;;-13.17;54.73;98497.84;4998125;28;20446;-79
2021/12/21 08:38:17;;;;;;;;;;;;;;;-13.29;54.61;98497.03;5015520;28;19925;-79
2021/12/21 08:40:45;;;;;;;;;;;;;;;-13.30;55.23;98485.31;5015973;28;19924;-79
2021/12/21 08:43:12;;;;;;;;;;;;;;;-13.14;55.22;98490.59;5014461;28;20304;-80
2021/12/21 08:45:38;;;;;;;;;;;;;;;-13.12;55.30;98494.03;5015617;28;20372;-79
2021/12/21 08:48:05;;;;;;;;;;;;;;;-13.17;55.50;98487.88;5015661;28;19971;-79
2021/12/21 08:50:30;;;;;;;;;;;;;;;-13.24;55.35;98491.59;5014567;28;20011;-79
2021/12/21 08:52:56;;;;;;;;;;;;;;;-12.99;54.72;98490.78;5015267;28;20388;-80
2021/12/21 08:55:22;;;;;;;;;;;;;;;-13.09;53.75;98490.13;5015199;28;19913;-80
2021/12/21 08:57:47;;;;;;;;;;;;;;;-12.95;53.59;98488.59;5013465;28;19924;-79
2021/12/21 09:00:13;;;;;;;;;;;;;;;-13.18;54.49;98487.00;4997148;28;19927;-79
2021/12/21 09:02:39;;;;;;;;;;;;;;;-13.21;55.76;98489.28;5014820;28;20015;-80
2021/12/21 09:05:10;;;;;;;;;;;;;;;-13.22;55.07;98486.72;4997320;28;20291;-80
2021/12/21 09:07:36;;;;;;;;;;;;;;;-13.34;56.12;98491.72;4997471;28;20406;-79
2021/12/21 09:10:01;;;;;;;;;;;;;;;-13.08;55.48;98484.38;4997540;28;19913;-79
2021/12/21 09:12:27;;;;;;;;;;;;;;;-13.10;54.52;98498.41;5030226;28;19944;-80
2021/12/21 09:14:52;;;;;;;;;;;;;;;-13.00;54.86;98499.88;4997224;28;19941;-80
2021/12/21 09:17:18;;;;;;;;;;;;;;;-13.04;55.09;98502.06;5015241;28;19978;-82
2021/12/21 09:19:45;;;;;;;;;;;;;;;-13.22;53.91;98506.69;4998405;28;19925;-80
2021/12/21 09:22:11;;;;;;;;;;;;;;;-12.85;53.97;98495.06;5015224;28;19944;-85
2021/12/21 09:24:36;;;;;;;;;;;;;;;-12.94;53.24;98485.31;5013882;28;19921;-78
2021/12/21 09:27:02;;;;;;;;;;;;;;;-13.02;54.17;98488.06;4997982;28;19921;-81
2021/12/21 09:29:27;;;;;;;;;;;;;;;-12.93;55.25;98504.53;5013051;28;19972;-79
2021/12/21 09:31:53;;;;;;;;;;;;;;;-13.04;55.36;98497.06;4997052;28;19988;-80
2021/12/21 09:34:18;;;;;;;;;;;;;;;-13.16;55.88;98497.09;5014547;28;19924;-79
2021/12/21 09:36:44;;;;;;;;;;;;;;;-12.86;55.66;98496.69;4997201;28;19917;-80
2021/12/21 09:39:09;;;;;;;;;;;;;;;-13.05;54.91;98495.34;4996774;28;19921;-79
2021/12/21 09:41:35;;;;;;;;;;;;;;;-13.13;55.39;98497.31;4996911;28;19917;-81
2021/12/21 09:44:01;;;;;;;;;;;;;;;-12.85;55.06;98500.94;4996921;28;19939;-84
2021/12/21 09:46:27;;;;;;;;;;;;;;;-12.95;55.15;98503.56;4997041;28;20007;-79
2021/12/21 09:48:52;;;;;;;;;;;;;;;-12.71;54.89;98496.88;4980424;28;20007;-79
2021/12/21 09:51:18;;;;;;;;;;;;;;;-12.81;54.14;98497.88;5013728;28;19923;-79
2021/12/21 09:53:43;;;;;;;;;;;;;;;-12.84;54.86;98489.31;4997177;28;19964;-78
2021/12/21 09:56:09;;;;;;;;;;;;;;;-12.95;54.62;98488.59;4980448;28;20292;-79
2021/12/21 09:58:34;;;;;;;;;;;;;;;-12.98;55.90;98495.84;4980385;28;19913;-78
2021/12/21 10:01:00;;;;;;;;;;;;;;;-12.88;54.61;98503.19;4996867;28;19968;-79
2021/12/21 10:03:25;;;;;;;;;;;;;;;-12.97;54.73;98497.59;4996920;28;19913;-80
2021/12/21 10:05:59;;;;;;;;;;;;;;;-12.73;54.11;98490.91;4996471;28;19917;-83
2021/12/21 10:08:27;;;;;;;;;;;;;;;-12.74;53.21;98489.16;4996760;28;20376;-79
2021/12/21 10:10:52;;;;;;;;;;;;;;;-12.87;54.35;98492.47;4996927;28;19958;-83
2021/12/21 10:13:19;;;;;;;;;;;;;;;-12.84;54.93;98495.16;5014676;28;20335;-83
2021/12/21 10:15:46;;;;;;;;;;;;;;;-12.81;54.37;98487.88;4998097;28;19913;-83
2021/12/21 10:18:12;;;;;;;;;;;;;;;-12.74;53.81;98495.78;4997197;28;19927;-80
2021/12/21 10:20:44;;;;;;;;;;;;;;;-12.47;53.98;98500.13;5014824;28;20014;-80
2021/12/21 10:23:11;;;;;;;;;;;;;;;-12.49;53.69;98501.66;4996322;28;19917;-81
2021/12/21 10:25:44;;;;;;;;;;;;;;;-12.48;52.70;98490.91;4996581;28;20296;-80
2021/12/21 10:28:09;;;;;;;;;;;;;;;-12.51;53.99;98495.69;4996977;28;20399;-78
2021/12/21 10:30:45;;;;;;;;;;;;;;;-12.53;52.70;98502.22;4997244;28;19913;-80
2021/12/21 10:33:11;;;;;;;;;;;;;;;-12.38;52.63;98499.88;4998896;28;19963;-80
2021/12/21 10:35:37;;;;;;;;;;;;;;;-12.27;52.25;98503.09;4996623;28;20281;-81
2021/12/21 10:38:04;;;;;;;;;;;;;;;-12.14;52.71;98496.50;4996771;28;19995;-79
2021/12/21 10:40:30;;;;;;;;;;;;;;;-12.31;52.41;98502.88;4997016;28;19924;-80
2021/12/21 10:42:56;;;;;;;;;;;;;;;-12.28;53.44;98508.84;4996141;28;19921;-79
2021/12/21 10:45:27;;;;;;;;;;;;;;;-12.21;52.87;98506.00;4995842;28;19924;-80
2021/12/21 10:47:52;;;;;;;;;;;;;;;-12.37;53.30;98506.59;5012266;28;19964;-79
2021/12/21 10:50:18;;;;;;;;;;;;;;;-12.14;54.52;98509.00;4995934;28;19945;-79
2021/12/21 10:52:47;;;;;;;;;;;;;;;-12.20;54.30;98515.22;4995957;28;20446;-80
2021/12/21 10:55:13;;;;;;;;;;;;;;;-12.16;54.28;98517.16;4996085;28;20019;-81
2021/12/21 10:57:38;;;;;;;;;;;;;;;-12.24;54.39;98505.78;4996564;28;19970;-81
2021/12/21 11:00:08;;;;;;;;;;;;;;;-12.40;54.59;98512.28;5012134;28;19960;-80
2021/12/21 11:02:35;;;;;;;;;;;;;;;-12.22;54.46;98514.25;5012358;28;19971;-81
2021/12/21 11:05:02;;;;;;;;;;;;;;;-12.32;54.72;98516.16;5013444;28;20352;-80
2021/12/21 11:07:40;;;;;;;;;;;;;;;-12.27;55.45;98518.09;5014113;28;19917;-79
2021/12/21 11:10:14;;;;;;;;;;;;;;;-12.12;54.72;98517.47;5012711;28;19925;-79
2021/12/21 11:12:40;;;;;;;;;;;;;;;-12.00;53.33;98519.91;5013800;28;19917;-80
2021/12/21 11:15:06;;;;;;;;;;;;;;;-12.08;53.25;98516.03;5012306;28;20384;-81
2021/12/21 11:17:32;;;;;;;;;;;;;;;-12.16;53.18;98515.53;5013691;28;19925;-79
2021/12/21 11:19:57;;;;;;;;;;;;;;;-12.19;53.83;98517.81;5012759;28;19917;-80
2021/12/21 11:22:23;;;;;;;;;;;;;;;-11.88;52.69;98523.19;5014170;28;19923;-79
2021/12/21 11:24:49;;;;;;;;;;;;;;;-12.16;52.65;98527.16;5013096;28;19943;-79
2021/12/21 11:27:15;;;;;;;;;;;;;;;-11.99;54.18;98524.13;4996060;28;19917;-79
2021/12/21 11:29:40;;;;;;;;;;;;;;;-12.11;52.70;98515.81;5012041;28;19919;-80
2021/12/21 11:32:06;;;;;;;;;;;;;;;-12.19;53.25;98517.81;5012171;28;20386;-82
2021/12/21 11:34:34;;;;;;;;;;;;;;;-12.37;55.07;98520.00;5015459;28;19920;-80
2021/12/21 11:39:43;;;;;;;;;;;;;;;-12.36;55.19;98524.22;5015247;28;19925;-78
2021/12/21 11:42:10;;;;;;;;;;;;;;;-12.47;54.36;98512.63;5015262;28;19971;-79
2021/12/21 11:44:53;;;;;;;;;;;;;;;-12.16;54.58;98523.03;4998805;28;19921;-78
2021/12/21 11:47:23;;;;;;;;;;;;;;;-12.27;55.43;98528.09;4999331;28;19929;-80
2021/12/21 11:49:50;;;;;;;;;;;;;;;-12.18;54.21;98536.19;5014713;28;20407;-79
2021/12/21 11:52:16;;;;;;;;;;;;;;;-12.02;54.53;98538.94;4998891;28;19913;-82
2021/12/21 11:54:43;;;;;;;;;;;;;;;-12.38;54.51;98540.72;5014832;28;19917;-83
2021/12/21 11:57:09;;;;;;;;;;;;;;;-12.37;54.75;98536.59;4999245;28;19917;-78
2021/12/21 11:59:34;;;;;;;;;;;;;;;-12.31;55.07;98532.88;5016753;28;20276;-80
2021/12/21 12:02:01;;;;;;;;;;;;;;;-12.48;54.63;98535.88;4998666;28;19960;-81
2021/12/21 12:04:27;;;;;;;;;;;;;;;-12.68;55.46;98543.66;5014556;28;20455;-80
2021/12/21 12:06:53;;;;;;;;;;;;;;;-12.72;55.16;98551.72;4999211;28;19913;-78
2021/12/21 12:09:23;;;;;;;;;;;;;;;-12.71;55.12;98543.44;4998246;28;20426;-79
2021/12/21 12:11:48;;;;;;;;;;;;;;;-12.74;54.98;98543.22;5014587;28;19925;-79
2021/12/21 12:14:14;;;;;;;;;;;;;;;-12.85;56.16;98550.00;4998665;28;20343;-79
2021/12/21 12:16:40;;;;;;;;;;;;;;;-12.87;56.36;98567.38;5015723;28;19971;-80
2021/12/21 12:19:10;;;;;;;;;;;;;;;-12.90;55.94;98574.66;5016212;28;19917;-80
2021/12/21 12:21:35;;;;;;;;;;;;;;;-12.96;55.69;98576.72;4998288;28;20011;-79
2021/12/21 12:24:01;;;;;;;;;;;;;;;-12.92;55.72;98588.66;5030907;28;20019;-80
2021/12/21 12:26:27;;;;;;;;;;;;;;;-13.08;55.58;98575.88;5014157;28;20310;-79
2021/12/21 12:28:57;;;;;;;;;;;;;;;-13.18;56.18;98586.81;4997984;28;20273;-80
2021/12/21 12:31:29;;;;;;;;;;;;;;;-13.42;57.21;98591.00;4998104;28;19917;-80
2021/12/21 12:33:55;;;;;;;;;;;;;;;-13.36;57.40;98593.03;5014089;28;19967;-79
2021/12/21 12:36:31;;;;;;;;;;;;;;;-13.21;57.40;98601.56;4998119;28;19913;-80
2021/12/21 12:38:57;;;;;;;;;;;;;;;-13.44;57.61;98604.09;5015155;28;20343;-80
2021/12/21 12:41:22;;;;;;;;;;;;;;;-13.52;56.80;98613.50;5014220;28;19926;-78
2021/12/21 12:43:47;;;;;;;;;;;;;;;-13.30;55.85;98602.59;5015313;28;19921;-79
2021/12/21 12:46:21;;;;;;;;;;;;;;;-13.06;55.67;98616.75;4997278;28;20531;-79
2021/12/21 12:48:47;;;;;;;;;;;;;;;-13.01;54.75;98622.97;5015307;28;19917;-79
2021/12/21 12:51:33;;;;;;;;;;;;;;;-13.86;55.21;98636.00;5015155;28;19921;-79
2021/12/21 12:53:59;;;;;;;;;;;;;;;-13.56;56.60;98624.00;5015510;28;20007;-78
2021/12/21 12:56:25;;;;;;;;;;;;;;;-13.57;56.09;98624.78;5014866;28;19917;-79
2021/12/21 12:58:52;;;;;;;;;;;;;;;-13.61;55.58;98627.81;5014124;28;20404;-79
2021/12/21 13:01:23;;;;;;;;;;;;;;;-13.91;55.77;98633.91;5015277;28;19971;-80
2021/12/21 13:03:50;;;;;;;;;;;;;;;-13.88;56.01;98636.63;5013896;28;19925;-82
2021/12/21 13:06:17;;;;;;;;;;;;;;;-13.72;56.29;98638.63;4997316;28;19920;-79
2021/12/21 13:08:43;;;;;;;;;;;;;;;-14.31;56.22;98645.00;4997428;28;19924;-79
2021/12/21 13:11:08;;;;;;;;;;;;;;;-14.49;58.45;98642.88;4996785;28;20015;-79
2021/12/21 13:13:38;;;;;;;;;;;;;;;-14.06;59.21;98637.75;4998070;28;19963;-79
2021/12/21 13:16:05;;;;;;;;;;;;;;;-14.18;57.93;98645.19;5014611;28;20308;-79
2021/12/21 13:18:31;;;;;;;;;;;;;;;-14.08;59.26;98644.25;5014140;28;19963;-79
2021/12/21 13:20:59;;;;;;;;;;;;;;;-14.18;58.49;98645.19;4997159;28;19921;-79
2021/12/21 13:23:29;;;;;;;;;;;;;;;-14.09;59.48;98648.38;4996758;28;20358;-79
2021/12/21 13:25:59;;;;;;;;;;;;;;;-13.91;57.85;98644.75;5013535;28;20384;-80
2021/12/21 13:28:25;;;;;;;;;;;;;;;-13.77;58.58;98650.75;4996876;28;19968;-78
2021/12/21 13:30:50;;;;;;;;;;;;;;;-13.97;57.83;98651.78;4996992;28;19936;-79
2021/12/21 13:33:21;;;;;;;;;;;;;;;-13.84;58.34;98646.94;5013836;28;19940;-79
2021/12/21 13:35:47;;;;;;;;;;;;;;;-13.58;58.39;98645.50;4997154;28;20241;-82
2021/12/21 13:38:13;;;;;;;;;;;;;;;-13.81;57.70;98651.28;4996631;28;19921;-79
2021/12/21 13:40:39;;;;;;;;;;;;;;;-13.75;57.61;98660.84;5013422;28;19921;-80
2021/12/21 13:43:10;;;;;;;;;;;;;;;-13.40;57.47;98656.81;5013680;28;20411;-79